Terminal Aerodrome Forecast
Issued by NWS

Home | Current Version | Previous Version | Text Only | Print | Product List | Glossary On
Versions: 1 2 3 4 5 6 7 8 9 10 11 12 13 14 15 16 17
000
FTUS43 KGRB 020500
TAFCWA
TAF
KCWA 020520Z 0206/0306 00000KT 4SM BR SKC
      TEMPO 0206/0208 1/2SM FG VV002
     FM020800 00000KT 3SM BR SKC
      TEMPO 0208/0212 1/4SM FG VV001
     FM021400 15004KT P6SM SCT050 SCT080
     FM021800 18005KT P6SM SCT060
     FM030100 VRB03KT P6SM FEW070
      AMD LTD TO CLD VIS AND WIND TIL 021200=

USA.gov is the U.S. government's official web portal to all federal, state and local government web resources and services.